Hlavní strana
METAR-TAF:

METAR-TAF

Letiště :

Turku, Finsko

zeměpisná šířka: 60-31N, zeměpisná délka: 022-16E, výška: 49 m

Aktuální stav počasí

Zpráva byla vytvořena před 12 minutami, v 12:20 UTC
Jihovýchodní vítr 4 kt, proměnlivý mezi východojihovýchodním a jižním
Teplota 20°C
Vlhkost vzduchu 40%
Tlak 1004 hPa
Viditelnost 10 km a více
Žádná oblačnost pod 1500 m, nevyskytují se cumulonimby.

METAR: EFTU 041220Z AUTO 14004KT 110V170 CAVOK 20/06 Q1004

Čas: 15:32 (12:32 UTC)

Předpověď počasí

Zpráva byla vytvořena před 1 hodinou a 8 minutami, v 11:24 UTC
Předpověď platná od 04 v 12 UTC do 05 v 12 UTC
Východoseverovýchodní vítr 7 kt
Viditelnost 10 km a více
Žádná oblačnost pod 1500 m, nevyskytují se cumulonimby.
Dočasný
od 04 v 12 UTC do 04 v 18 UTC
Skoro jasno ve výšce 5000 ft, Cumulonimbus.

TAF: EFTU 041124Z 0412/0512 07007KT CAVOK TEMPO 0412/0418 FEW050CB

Stav a předpovědi počasí z více než 4 000 letišť (zprávy METAR a TAF).

Červené a žluté tečky na mapě představují dostupné meteorologické stanice.

Když kurzor umístíte na tečku, zobrazí se název stanice.

Pak kliknutím zobrazíte stav a předpověď počasí.

Chcete-li změnit mapu, kliknutím na zelené tlačítko se znaménkem +mapu přiblížíte, kliknutím na zelené tlačítko se znaménkem – mapu oddálíte a kliknutím na zelené šipky přejdete na sousední mapy.


METAR-TAF: